Terminal Aerodrome Forecast
Issued by NWS

Home | Current Version | Previous Version | Text Only | Print | Product List | Glossary On
Versions: 1 2 3 4 5 6 7 8 9 10 11 12 13 14 15 16 17 18
000
FTUS41 KPBZ 280328 AAA
TAFMGW
TAF AMD
KMGW 280328Z 2803/2824 VRB03KT P6SM BKN012 BKN025
     FM280800 VRB03KT 5SM BR SCT006 OVC010
     FM281500 VRB04KT 5SM SHRA OVC015
     FM282100 VRB03KT 3SM +SHRA OVC020=

USA.gov is the U.S. government's official web portal to all federal, state and local government web resources and services.